createdAt,value
2022-08-03T00:02:23.041Z,23.57
2022-08-03T00:04:53.058Z,23.72
2022-08-03T00:07:27.965Z,23.43
2022-08-03T00:09:58.603Z,23.63
2022-08-03T00:12:26.729Z,23.62
2022-08-03T00:14:58.898Z,23.71
2022-08-03T00:17:31.617Z,23.69
2022-08-03T00:20:36.073Z,23.58
2022-08-03T00:23:51.237Z,23.38
2022-08-03T00:26:33.440Z,23.53
2022-08-03T00:29:16.290Z,23.30
2022-08-03T00:32:09.628Z,23.27
2022-08-03T00:35:09.864Z,23.26
2022-08-03T00:37:45.902Z,23.30
2022-08-03T00:40:15.515Z,23.38
2022-08-03T00:43:13.175Z,23.41
2022-08-03T00:45:48.403Z,23.27
2022-08-03T00:48:32.906Z,23.41
2022-08-03T00:51:02.791Z,23.32
2022-08-03T00:53:30.480Z,23.15
2022-08-03T00:56:02.735Z,23.22
2022-08-03T00:58:30.541Z,23.19
2022-08-03T01:00:59.140Z,23.01
2022-08-03T01:03:27.822Z,22.91
2022-08-03T01:06:19.897Z,22.91
2022-08-03T01:08:56.055Z,22.95
2022-08-03T01:11:59.997Z,22.90
2022-08-03T01:14:52.338Z,22.96
2022-08-03T01:17:30.360Z,23.03
2022-08-03T01:20:14.333Z,22.73
2022-08-03T01:23:29.914Z,23.00
2022-08-03T01:26:28.044Z,22.96
2022-08-03T01:29:13.701Z,23.00
2022-08-03T01:33:02.488Z,23.13
2022-08-03T01:35:04.118Z,22.96
2022-08-03T01:37:48.616Z,22.87
2022-08-03T01:40:20.581Z,22.80
2022-08-03T01:42:52.018Z,22.83
2022-08-03T01:45:47.401Z,22.43
2022-08-03T01:48:19.706Z,22.42
2022-08-03T01:51:08.963Z,22.26
2022-08-03T01:53:46.286Z,22.17
2022-08-03T01:56:20.253Z,22.14
2022-08-03T01:58:51.046Z,22.01
2022-08-03T02:01:20.946Z,22.06
2022-08-03T02:03:59.586Z,22.05
2022-08-03T02:07:01.831Z,22.10
2022-08-03T02:09:22.096Z,22.08
2022-08-03T02:11:53.431Z,21.94
2022-08-03T02:14:24.219Z,21.87
2022-08-03T02:16:53.637Z,21.74
2022-08-03T02:19:23.221Z,21.73
2022-08-03T02:22:13.679Z,21.56
2022-08-03T02:24:58.175Z,21.45
2022-08-03T02:27:27.650Z,21.38
2022-08-03T02:30:15.722Z,21.51
2022-08-03T02:32:51.882Z,21.69
2022-08-03T02:35:25.071Z,21.65
2022-08-03T02:38:00.768Z,21.52
2022-08-03T02:40:51.472Z,21.46
2022-08-03T02:43:22.967Z,21.65
2022-08-03T02:45:53.107Z,21.47
2022-08-03T02:48:41.868Z,21.33
2022-08-03T02:51:10.188Z,21.17
2022-08-03T02:53:39.092Z,21.26
2022-08-03T02:56:07.854Z,21.10
2022-08-03T02:58:41.529Z,21.10
2022-08-03T03:01:14.494Z,20.96
2022-08-03T03:03:51.218Z,20.91
2022-08-03T03:06:23.063Z,20.85
2022-08-03T03:09:12.430Z,21.08
2022-08-03T03:11:41.586Z,20.96
2022-08-03T03:14:13.503Z,20.93
2022-08-03T03:16:42.776Z,20.91
2022-08-03T03:19:13.320Z,20.93
2022-08-03T03:21:40.748Z,20.82
2022-08-03T03:24:09.879Z,20.83
2022-08-03T03:26:42.309Z,21.00
2022-08-03T03:29:10.130Z,21.06
2022-08-03T03:31:37.550Z,20.95
2022-08-03T03:34:07.178Z,20.79
2022-08-03T03:36:36.254Z,20.82
2022-08-03T03:39:15.158Z,20.76
2022-08-03T03:42:04.436Z,20.81
2022-08-03T03:44:32.275Z,20.72
2022-08-03T03:47:01.119Z,20.79
2022-08-03T03:49:28.690Z,20.89
2022-08-03T03:51:58.901Z,21.04
2022-08-03T03:54:29.283Z,21.00
2022-08-03T03:56:57.852Z,20.99
2022-08-03T03:59:25.888Z,21.08
2022-08-03T04:01:59.164Z,21.08
2022-08-03T04:04:51.503Z,21.07
2022-08-03T04:07:44.032Z,20.86
2022-08-03T04:10:41.131Z,21.08
2022-08-03T04:13:15.951Z,21.26
2022-08-03T04:15:46.792Z,21.43
2022-08-03T04:18:17.606Z,21.44
2022-08-03T04:20:47.623Z,21.52
2022-08-03T04:23:18.713Z,21.58
2022-08-03T04:25:49.399Z,21.61
2022-08-03T04:28:29.484Z,21.57
2022-08-03T04:31:05.397Z,21.68
2022-08-03T04:33:58.940Z,21.51
2022-08-03T04:36:33.023Z,21.76
2022-08-03T04:42:07.848Z,21.99
2022-08-03T04:44:40.687Z,21.99
2022-08-03T04:47:09.928Z,22.16
2022-08-03T04:49:40.692Z,22.17
2022-08-03T04:52:10.309Z,22.00
2022-08-03T04:54:50.359Z,22.10
2022-08-03T04:57:22.739Z,22.20
2022-08-03T05:00:02.678Z,22.26
2022-08-03T05:02:35.360Z,22.34
2022-08-03T05:05:03.030Z,22.41
2022-08-03T05:07:35.905Z,22.38
2022-08-03T05:10:22.780Z,22.51
2022-08-03T05:12:51.832Z,22.64
2022-08-03T05:15:19.311Z,22.88
2022-08-03T05:17:46.813Z,22.67
2022-08-03T05:20:16.558Z,23.04
2022-08-03T05:23:10.802Z,23.01
2022-08-03T05:25:46.152Z,22.97
2022-08-03T05:28:17.936Z,22.85
2022-08-03T05:30:46.462Z,23.42
2022-08-03T05:33:14.017Z,23.82
2022-08-03T05:36:00.784Z,23.83
2022-08-03T05:38:34.299Z,24.31
2022-08-03T05:41:20.403Z,24.57
2022-08-03T05:43:54.513Z,24.69
2022-08-03T05:46:25.388Z,24.92
2022-08-03T05:48:52.876Z,25.14
2022-08-03T05:51:20.624Z,25.11
2022-08-03T05:53:50.520Z,25.30
2022-08-03T05:56:17.882Z,25.59
2022-08-03T05:58:47.011Z,26.00
2022-08-03T06:01:16.907Z,26.21
2022-08-03T06:03:45.870Z,26.19
2022-08-03T06:06:13.822Z,26.17
2022-08-03T06:08:42.487Z,26.27
2022-08-03T06:11:10.094Z,26.43
2022-08-03T06:13:37.904Z,26.81
2022-08-03T06:16:05.955Z,26.72
2022-08-03T06:18:33.453Z,27.11
2022-08-03T06:21:14.239Z,27.52
2022-08-03T06:23:52.835Z,27.85
2022-08-03T06:26:26.699Z,28.15
2022-08-03T06:28:55.094Z,28.30
2022-08-03T06:31:33.192Z,28.38
2022-08-03T06:34:33.833Z,28.44
2022-08-03T06:36:58.554Z,28.51
2022-08-03T06:39:29.603Z,28.78
2022-08-03T06:41:56.892Z,28.60
2022-08-03T06:44:25.068Z,28.42
2022-08-03T06:46:53.187Z,28.89
2022-08-03T06:49:23.290Z,29.05
2022-08-03T06:52:05.624Z,29.18
2022-08-03T06:54:35.512Z,29.46
2022-08-03T06:57:03.853Z,29.62
2022-08-03T07:00:10.584Z,29.72
2022-08-03T07:02:19.893Z,30.06
2022-08-03T07:04:51.040Z,30.40
2022-08-03T07:07:19.584Z,30.47
2022-08-03T07:09:56.394Z,30.83
2022-08-03T07:12:26.954Z,30.59
2022-08-03T07:15:00.039Z,30.71
2022-08-03T07:17:29.184Z,30.76
2022-08-03T07:19:57.096Z,30.85
2022-08-03T07:22:24.430Z,30.86
2022-08-03T07:24:51.878Z,30.72
2022-08-03T07:27:19.410Z,30.86
2022-08-03T07:29:47.863Z,30.57
2022-08-03T07:32:21.293Z,30.70
2022-08-03T07:34:51.392Z,30.74
2022-08-03T07:37:20.106Z,31.08
2022-08-03T07:39:47.571Z,31.32
2022-08-03T07:42:15.591Z,31.68
2022-08-03T07:44:50.931Z,32.16
2022-08-03T07:47:35.725Z,32.40
2022-08-03T07:50:03.812Z,32.61
2022-08-03T07:52:49.954Z,32.61
2022-08-03T07:55:19.431Z,32.58
2022-08-03T07:57:47.401Z,32.47
2022-08-03T08:00:20.218Z,32.38
2022-08-03T08:02:48.201Z,32.13
2022-08-03T08:05:15.484Z,31.94
2022-08-03T08:07:42.806Z,32.40
2022-08-03T08:10:10.669Z,32.29
2022-08-03T08:12:39.184Z,32.18
2022-08-03T08:15:09.698Z,32.00
2022-08-03T08:17:47.842Z,31.99
2022-08-03T08:20:30.838Z,32.35
2022-08-03T08:23:02.145Z,32.48
2022-08-03T08:25:31.738Z,32.89
2022-08-03T08:28:31.174Z,33.06
2022-08-03T08:30:53.310Z,33.21
2022-08-03T08:33:23.525Z,33.50
2022-08-03T08:35:53.243Z,33.49
2022-08-03T08:38:23.989Z,33.71
2022-08-03T08:40:56.011Z,33.88
2022-08-03T08:43:23.821Z,33.74
2022-08-03T08:45:54.365Z,33.44
2022-08-03T08:48:25.670Z,33.09
2022-08-03T08:50:56.105Z,32.16
2022-08-03T08:53:30.059Z,31.96
2022-08-03T08:56:01.340Z,32.08
2022-08-03T08:58:42.139Z,32.37
2022-08-03T09:01:10.343Z,32.80
2022-08-03T09:03:39.434Z,33.11
2022-08-03T09:06:14.044Z,33.27
2022-08-03T09:08:44.015Z,33.70
2022-08-03T09:11:12.184Z,33.57
2022-08-03T09:13:40.282Z,34.20
2022-08-03T09:16:12.321Z,34.19
2022-08-03T09:18:41.385Z,34.31
2022-08-03T09:21:32.792Z,34.15
2022-08-03T09:24:05.270Z,34.01
2022-08-03T09:26:42.067Z,34.35
2022-08-03T09:29:14.926Z,34.27
2022-08-03T09:31:47.143Z,33.83
2022-08-03T09:34:17.338Z,32.80
2022-08-03T09:36:54.250Z,33.89
2022-08-03T09:39:53.606Z,34.29
2022-08-03T09:42:24.346Z,34.88
2022-08-03T09:45:27.989Z,35.11
2022-08-03T09:47:59.972Z,35.11
2022-08-03T09:50:29.398Z,35.09
2022-08-03T09:53:02.401Z,35.35
2022-08-03T09:56:33.495Z,35.39
2022-08-03T09:58:29.057Z,35.79
2022-08-03T10:01:05.351Z,36.18
2022-08-03T10:04:03.351Z,36.37
2022-08-03T10:06:29.320Z,36.21
2022-08-03T10:09:15.083Z,36.16
2022-08-03T10:11:44.284Z,34.46
2022-08-03T10:14:21.218Z,34.87
2022-08-03T10:16:50.920Z,34.53
2022-08-03T10:19:18.573Z,33.89
2022-08-03T10:21:55.710Z,33.94
2022-08-03T10:24:33.186Z,34.70
2022-08-03T10:27:07.474Z,35.33
2022-08-03T10:29:43.029Z,35.88
2022-08-03T10:32:15.980Z,34.41
2022-08-03T10:34:45.222Z,34.54
2022-08-03T10:37:15.216Z,34.95
2022-08-03T10:39:53.587Z,34.23
2022-08-03T10:42:25.039Z,34.06
2022-08-03T10:45:03.793Z,34.94
2022-08-03T10:47:32.057Z,35.69
2022-08-03T10:50:00.563Z,35.99
2022-08-03T10:52:35.009Z,36.17
2022-08-03T10:55:50.652Z,36.13
2022-08-03T10:58:57.150Z,34.55
2022-08-03T11:02:02.964Z,35.67
2022-08-03T11:04:30.779Z,36.07
2022-08-03T11:07:20.754Z,35.65
2022-08-03T11:09:57.481Z,35.39
2022-08-03T11:12:32.872Z,35.23
2022-08-03T11:15:06.478Z,35.47
2022-08-03T11:17:46.150Z,36.17
2022-08-03T11:20:55.086Z,36.46
2022-08-03T11:24:03.106Z,36.38
2022-08-03T11:26:34.119Z,36.88
2022-08-03T11:29:28.162Z,37.67
2022-08-03T11:31:55.593Z,37.63
2022-08-03T11:34:24.750Z,37.16
2022-08-03T11:37:28.839Z,37.30
2022-08-03T11:40:02.722Z,36.98
2022-08-03T11:42:40.892Z,35.77
2022-08-03T11:45:10.563Z,35.88
2022-08-03T11:47:50.460Z,35.28
2022-08-03T11:50:21.994Z,35.23
2022-08-03T11:52:50.711Z,36.41
2022-08-03T11:55:22.198Z,35.96
2022-08-03T11:59:10.696Z,35.79
2022-08-03T12:00:37.997Z,35.74
2022-08-03T12:03:35.383Z,36.36
2022-08-03T12:06:05.822Z,35.88
2022-08-03T12:08:35.947Z,35.43
2022-08-03T12:11:09.553Z,35.47
2022-08-03T12:14:44.261Z,36.36
2022-08-03T12:16:33.115Z,35.60
2022-08-03T12:19:05.163Z,35.80
2022-08-03T12:21:34.710Z,36.18
2022-08-03T12:24:05.300Z,35.95
2022-08-03T12:26:59.349Z,36.84
2022-08-03T12:29:28.015Z,36.57
2022-08-03T12:31:56.074Z,36.78
2022-08-03T12:34:23.793Z,35.69
2022-08-03T12:36:54.212Z,35.99
2022-08-03T12:39:27.615Z,36.07
2022-08-03T12:41:56.876Z,35.62
2022-08-03T12:44:36.786Z,36.41
2022-08-03T12:47:06.761Z,37.12
2022-08-03T12:49:47.208Z,37.13
2022-08-03T12:52:15.154Z,37.15
2022-08-03T12:54:43.889Z,36.98
2022-08-03T12:57:15.624Z,37.50
2022-08-03T12:59:53.415Z,37.41
2022-08-03T13:02:23.987Z,37.64
2022-08-03T13:04:53.710Z,37.41
2022-08-03T13:07:22.350Z,37.42
2022-08-03T13:09:55.814Z,37.34
2022-08-03T13:12:25.683Z,37.30
2022-08-03T13:14:56.637Z,37.11
2022-08-03T13:17:24.542Z,36.95
2022-08-03T13:19:53.548Z,37.03
2022-08-03T13:22:27.682Z,35.90
2022-08-03T13:24:57.587Z,36.76
2022-08-03T13:28:03.589Z,36.14
2022-08-03T13:30:24.957Z,36.70
2022-08-03T13:32:58.889Z,36.24
2022-08-03T13:35:27.021Z,36.36
2022-08-03T13:37:57.571Z,37.12
2022-08-03T13:40:30.028Z,37.03
2022-08-03T13:43:06.568Z,37.37
2022-08-03T13:45:33.924Z,37.42
2022-08-03T13:48:01.485Z,36.62
2022-08-03T13:50:30.199Z,36.25
2022-08-03T13:52:58.381Z,35.92
2022-08-03T13:55:25.918Z,35.69
2022-08-03T13:58:05.098Z,35.63
2022-08-03T14:00:34.867Z,35.84
2022-08-03T14:03:12.223Z,36.03
2022-08-03T14:05:41.204Z,35.72
2022-08-03T14:08:10.065Z,35.64
2022-08-03T14:10:40.119Z,35.36
2022-08-03T14:13:07.921Z,35.84
2022-08-03T14:15:42.786Z,36.15
2022-08-03T14:18:27.937Z,36.09
2022-08-03T14:21:07.003Z,36.17
2022-08-03T14:23:39.536Z,35.98
2022-08-03T14:26:08.476Z,36.30
2022-08-03T14:28:36.348Z,36.50
2022-08-03T14:31:08.125Z,36.53
2022-08-03T14:33:36.481Z,36.18
2022-08-03T14:36:04.706Z,36.25
2022-08-03T14:38:32.326Z,36.44
2022-08-03T14:41:00.204Z,36.32
2022-08-03T14:43:34.205Z,36.68
2022-08-03T14:46:04.884Z,36.42
2022-08-03T14:50:32.950Z,36.35
2022-08-03T14:51:21.352Z,36.29
2022-08-03T14:53:48.626Z,36.39
2022-08-03T14:56:15.934Z,36.39
2022-08-03T14:58:43.451Z,36.53
2022-08-03T15:02:01.742Z,36.60
2022-08-03T15:04:00.736Z,36.47
2022-08-03T15:06:28.040Z,35.73
2022-08-03T15:09:21.501Z,35.55
2022-08-03T15:11:43.903Z,35.63
2022-08-03T15:14:13.534Z,35.69
2022-08-03T15:16:42.655Z,35.95
2022-08-03T15:20:02.117Z,35.81
2022-08-03T15:21:57.995Z,35.45
2022-08-03T15:24:29.563Z,35.52
2022-08-03T15:26:56.886Z,35.32
2022-08-03T15:30:07.792Z,35.41
2022-08-03T15:32:12.136Z,35.06
2022-08-03T15:34:39.484Z,34.14
2022-08-03T15:37:16.191Z,34.07
2022-08-03T15:39:59.730Z,33.63
2022-08-03T15:42:30.429Z,33.83
2022-08-03T15:44:58.706Z,34.15
2022-08-03T15:47:25.997Z,34.27
2022-08-03T15:49:53.316Z,34.41
2022-08-03T15:52:21.005Z,34.35
2022-08-03T15:54:50.814Z,34.36
2022-08-03T15:57:19.395Z,34.24
2022-08-03T15:59:47.330Z,34.29
2022-08-03T16:02:16.792Z,34.28
2022-08-03T16:04:46.644Z,34.19
2022-08-03T16:07:37.213Z,34.24
2022-08-03T16:10:05.010Z,34.17
2022-08-03T16:12:33.106Z,34.10
2022-08-03T16:15:01.726Z,33.97
2022-08-03T16:17:32.715Z,33.94
2022-08-03T16:20:00.738Z,33.71
2022-08-03T16:22:34.381Z,33.49
2022-08-03T16:25:02.133Z,33.38
2022-08-03T16:27:58.087Z,33.26
2022-08-03T16:30:18.693Z,33.17
2022-08-03T16:32:46.295Z,33.26
2022-08-03T16:35:19.592Z,33.28
2022-08-03T16:37:54.550Z,33.14
2022-08-03T16:40:25.302Z,33.06
2022-08-03T16:42:54.595Z,33.05
2022-08-03T16:45:22.059Z,32.85
2022-08-03T16:48:05.146Z,32.82
2022-08-03T16:50:35.147Z,32.65
2022-08-03T16:53:15.507Z,32.64
2022-08-03T16:55:53.634Z,32.44
2022-08-03T16:58:34.894Z,32.40
2022-08-03T17:01:22.312Z,32.32
2022-08-03T17:04:01.819Z,32.22
2022-08-03T17:06:35.651Z,32.17
2022-08-03T17:09:12.185Z,32.01
2022-08-03T17:11:47.116Z,31.96
2022-08-03T17:14:17.037Z,31.92
2022-08-03T17:16:52.734Z,31.80
2022-08-03T17:19:24.158Z,31.70
2022-08-03T17:21:59.052Z,31.60
2022-08-03T17:24:35.062Z,31.44
2022-08-03T17:27:08.943Z,31.29
2022-08-03T17:29:39.457Z,31.20
2022-08-03T17:32:18.375Z,31.07
2022-08-03T17:34:51.455Z,30.90
2022-08-03T17:37:50.115Z,30.79
2022-08-03T17:40:17.992Z,30.66
2022-08-03T17:42:50.498Z,30.49
2022-08-03T17:45:19.655Z,30.39
2022-08-03T17:47:57.031Z,30.29
2022-08-03T17:50:37.408Z,30.15
2022-08-03T17:53:23.868Z,30.01
2022-08-03T17:56:38.518Z,29.73
2022-08-03T17:59:14.329Z,29.56
2022-08-03T18:02:33.141Z,29.49
2022-08-03T18:05:16.617Z,29.39
2022-08-03T18:07:59.285Z,29.28
2022-08-03T18:10:35.130Z,29.16
2022-08-03T18:13:21.187Z,29.16
2022-08-03T18:16:04.506Z,29.27
2022-08-03T18:18:36.030Z,29.18
2022-08-03T18:21:06.565Z,29.07
2022-08-03T18:23:40.357Z,29.01
2022-08-03T18:26:11.846Z,28.92
2022-08-03T18:28:39.962Z,28.78
2022-08-03T18:31:12.770Z,28.63
2022-08-03T18:34:20.337Z,28.66
2022-08-03T18:36:49.810Z,28.61
2022-08-03T18:39:19.519Z,28.47
2022-08-03T18:41:48.706Z,28.40
2022-08-03T18:44:53.411Z,28.24
2022-08-03T18:47:27.603Z,28.16
2022-08-03T18:50:26.976Z,28.10
2022-08-03T18:53:15.702Z,28.09
2022-08-03T18:56:01.705Z,28.05
2022-08-03T18:58:56.055Z,28.05
2022-08-03T19:02:00.291Z,27.92
2022-08-03T19:04:36.579Z,27.76
2022-08-03T19:07:13.024Z,27.65
2022-08-03T19:09:54.694Z,27.76
2022-08-03T19:12:39.812Z,27.58
2022-08-03T19:15:12.619Z,27.49
2022-08-03T19:17:52.924Z,27.44
2022-08-03T19:20:32.458Z,27.19
2022-08-03T19:23:00.654Z,27.05
2022-08-03T19:25:35.142Z,27.02
2022-08-03T19:28:07.225Z,26.96
2022-08-03T19:30:39.070Z,26.91
2022-08-03T19:33:12.544Z,26.81
2022-08-03T19:35:51.678Z,26.70
2022-08-03T19:38:27.594Z,26.63
2022-08-03T19:41:00.668Z,26.61
2022-08-03T19:43:49.343Z,26.59
2022-08-03T19:46:30.217Z,26.54
2022-08-03T19:49:15.123Z,26.45
2022-08-03T19:52:01.713Z,26.46
2022-08-03T19:54:45.586Z,26.46
2022-08-03T19:57:24.155Z,26.46
2022-08-03T19:59:53.571Z,26.40
2022-08-03T20:05:14.946Z,26.44
2022-08-03T20:07:47.911Z,26.35
2022-08-03T20:10:21.746Z,26.33
2022-08-03T20:12:50.773Z,26.35
2022-08-03T20:18:16.927Z,26.24
2022-08-03T20:20:52.691Z,26.27
2022-08-03T20:23:21.476Z,26.27
2022-08-03T20:25:58.829Z,26.24
2022-08-03T20:28:32.118Z,26.20
2022-08-03T20:31:00.131Z,26.28
2022-08-03T20:33:46.633Z,26.30
2022-08-03T20:36:18.891Z,26.26
2022-08-03T20:38:51.934Z,26.21
2022-08-03T20:41:21.278Z,26.28
2022-08-03T20:43:49.508Z,26.22
2022-08-03T20:46:31.868Z,26.18
2022-08-03T20:49:05.372Z,26.19
2022-08-03T20:51:50.225Z,26.19
2022-08-03T20:54:29.411Z,26.16
2022-08-03T20:57:03.681Z,26.26
2022-08-03T20:59:50.712Z,26.26
2022-08-03T21:02:30.115Z,26.23
2022-08-03T21:05:03.265Z,26.14
2022-08-03T21:08:06.160Z,26.16
2022-08-03T21:10:41.934Z,26.11
2022-08-03T21:13:08.908Z,26.23
2022-08-03T21:13:09.285Z,26.36
2022-08-03T21:13:26.803Z,25.97
2022-08-03T21:16:12.514Z,25.87
2022-08-03T21:18:53.305Z,25.87
2022-08-03T21:21:24.301Z,25.93
2022-08-03T21:23:57.703Z,25.87
2022-08-03T21:26:27.455Z,25.85
2022-08-03T21:28:57.861Z,25.77
2022-08-03T21:31:26.724Z,25.76
2022-08-03T21:34:04.424Z,25.81
2022-08-03T21:36:35.361Z,25.88
2022-08-03T21:39:08.372Z,25.95
2022-08-03T21:41:37.462Z,25.92
2022-08-03T21:44:07.539Z,25.81
2022-08-03T21:46:37.740Z,25.86
2022-08-03T21:49:51.915Z,25.92
2022-08-03T21:52:02.966Z,25.84
2022-08-03T21:54:43.360Z,25.85
2022-08-03T21:57:22.067Z,25.89
2022-08-03T22:00:15.899Z,25.91
2022-08-03T22:02:54.505Z,25.96
2022-08-03T22:05:29.010Z,25.96
2022-08-03T22:08:13.843Z,25.96
2022-08-03T22:10:44.581Z,25.87
2022-08-03T22:13:43.731Z,25.87
2022-08-03T22:16:16.752Z,25.92
2022-08-03T22:18:46.228Z,25.89
2022-08-03T22:21:16.478Z,25.82
2022-08-03T22:24:00.093Z,25.78
2022-08-03T22:26:32.362Z,25.73
2022-08-03T22:29:08.163Z,25.72
2022-08-03T22:31:58.201Z,25.59
2022-08-03T22:34:28.690Z,25.67
2022-08-03T22:37:03.856Z,25.70
2022-08-03T22:39:35.502Z,25.74
2022-08-03T22:42:07.382Z,25.75
2022-08-03T22:44:36.241Z,25.79
2022-08-03T22:47:05.015Z,25.82
2022-08-03T22:49:33.900Z,25.77
2022-08-03T22:52:02.842Z,25.80
2022-08-03T22:54:32.753Z,25.74
2022-08-03T22:57:01.693Z,25.75
2022-08-03T22:59:41.296Z,25.54
2022-08-03T23:02:21.669Z,25.60
2022-08-03T23:04:53.416Z,25.48
2022-08-03T23:07:31.299Z,25.54
2022-08-03T23:10:04.075Z,25.54
2022-08-03T23:12:35.075Z,25.62
2022-08-03T23:15:10.013Z,25.65
2022-08-03T23:17:58.199Z,25.63
2022-08-03T23:20:27.046Z,25.46
2022-08-03T23:22:58.723Z,25.46
2022-08-03T23:25:28.152Z,25.60
2022-08-03T23:28:05.307Z,25.64
2022-08-03T23:30:37.560Z,25.67
2022-08-03T23:33:08.232Z,25.61
2022-08-03T23:36:28.015Z,25.58
2022-08-03T23:38:44.155Z,25.65
2022-08-03T23:41:12.877Z,25.67
2022-08-03T23:43:51.182Z,25.64
2022-08-03T23:46:27.528Z,25.54
2022-08-03T23:48:56.456Z,25.71
2022-08-03T23:51:38.472Z,25.69
2022-08-03T23:54:39.840Z,25.64
2022-08-03T23:57:11.624Z,25.55
2022-08-03T23:59:54.513Z,25.59
